createdAt,value
2023-04-22T00:01:56.199Z,100811.72
2023-04-22T00:04:23.105Z,100819.69
2023-04-22T00:06:57.123Z,100803.25
2023-04-22T00:09:38.314Z,100811.41
2023-04-22T00:12:12.526Z,100814.69
2023-04-22T00:14:46.021Z,100814.06
2023-04-22T00:17:19.130Z,100814.63
2023-04-22T00:19:45.842Z,100808.78
2023-04-22T00:22:19.024Z,100810.78
2023-04-22T00:24:45.943Z,100815.47
2023-04-22T00:27:19.008Z,100810.25
2023-04-22T00:29:52.114Z,100803.38
2023-04-22T00:32:19.222Z,100809.84
2023-04-22T00:34:52.147Z,100809.09
2023-04-22T00:37:19.040Z,100794.34
2023-04-22T00:39:52.037Z,100791.91
2023-04-22T00:42:25.038Z,100792.97
2023-04-22T00:44:52.893Z,100789.47
2023-04-22T00:47:26.127Z,100792.31
2023-04-22T00:50:01.052Z,100786.50
2023-04-22T00:52:27.851Z,100790.22
2023-04-22T00:55:01.057Z,100786.19
2023-04-22T00:57:31.147Z,100784.59
2023-04-22T01:00:05.049Z,100793.63
2023-04-22T01:02:32.231Z,100782.25
2023-04-22T01:05:06.132Z,100772.69
2023-04-22T01:07:32.895Z,100770.28
2023-04-22T01:10:13.034Z,100773.13
2023-04-22T01:12:46.054Z,100770.69
2023-04-22T01:15:20.255Z,100764.97
2023-04-22T01:17:48.058Z,100775.03
2023-04-22T01:20:22.135Z,100758.88
2023-04-22T01:22:57.176Z,100772.25
2023-04-22T01:25:27.403Z,100770.88
2023-04-22T01:28:01.101Z,100765.44
2023-04-22T01:30:35.067Z,100767.25
2023-04-22T01:33:08.121Z,100768.06
2023-04-22T01:35:37.997Z,100768.28
2023-04-22T01:38:13.104Z,100769.53
2023-04-22T01:40:40.195Z,100776.34
2023-04-22T01:43:13.033Z,100768.41
2023-04-22T01:45:46.208Z,100768.78
2023-04-22T01:48:19.215Z,100763.81
2023-04-22T01:50:53.114Z,100767.72
2023-04-22T01:53:20.022Z,100763.56
2023-04-22T01:55:54.122Z,100762.16
2023-04-22T01:58:20.867Z,100765.78
2023-04-22T02:00:54.148Z,100756.97
2023-04-22T02:03:27.600Z,100756.13
2023-04-22T02:06:01.115Z,100756.13
2023-04-22T02:08:27.897Z,100749.88
2023-04-22T02:11:08.094Z,100744.78
2023-04-22T02:13:46.260Z,100751.13
2023-04-22T02:16:20.122Z,100743.41
2023-04-22T02:18:53.036Z,100742.75
2023-04-22T02:21:26.074Z,100744.66
2023-04-22T02:23:52.810Z,100735.94
2023-04-22T02:26:26.162Z,100742.28
2023-04-22T02:28:53.349Z,100744.09
2023-04-22T02:31:27.250Z,100744.81
2023-04-22T02:33:54.147Z,100749.47
2023-04-22T02:36:20.952Z,100735.50
2023-04-22T02:38:54.143Z,100733.41
2023-04-22T02:41:28.085Z,100735.94
2023-04-22T02:44:01.076Z,100739.47
2023-04-22T02:46:27.933Z,100738.69
2023-04-22T02:49:01.164Z,100733.59
2023-04-22T02:51:28.462Z,100720.88
2023-04-22T02:53:55.262Z,100734.53
2023-04-22T02:56:28.088Z,100731.91
2023-04-22T02:58:54.812Z,100731.16
2023-04-22T03:01:28.314Z,100729.25
2023-04-22T03:04:01.330Z,100730.88
2023-04-22T03:06:35.179Z,100729.03
2023-04-22T03:09:08.196Z,100725.47
2023-04-22T03:11:48.158Z,100722.34
2023-04-22T03:14:14.919Z,100724.16
2023-04-22T03:16:42.198Z,100720.56
2023-04-22T03:19:15.138Z,100723.00
2023-04-22T03:21:48.149Z,100708.28
2023-04-22T03:24:21.202Z,100709.84
2023-04-22T03:26:48.037Z,100711.34
2023-04-22T03:29:21.127Z,100711.91
2023-04-22T03:31:47.927Z,100701.31
2023-04-22T03:34:21.168Z,100693.47
2023-04-22T03:36:47.942Z,100698.56
2023-04-22T03:39:28.163Z,100698.56
2023-04-22T03:41:54.879Z,100696.75
2023-04-22T03:44:28.140Z,100701.09
2023-04-22T03:46:54.910Z,100692.22
2023-04-22T03:49:29.180Z,100691.19
2023-04-22T03:51:56.262Z,100684.81
2023-04-22T03:54:29.199Z,100684.59
2023-04-22T03:56:56.109Z,100680.03
2023-04-22T03:59:29.168Z,100678.03
2023-04-22T04:02:02.325Z,100681.31
2023-04-22T04:04:30.149Z,100676.78
2023-04-22T04:07:04.232Z,100671.47
2023-04-22T04:09:37.745Z,100676.78
2023-04-22T04:12:18.165Z,100672.22
2023-04-22T04:14:44.937Z,100672.88
2023-04-22T04:17:21.196Z,100663.13
2023-04-22T04:19:48.142Z,100669.06
2023-04-22T04:22:22.213Z,100679.34
2023-04-22T04:24:55.162Z,100662.28
2023-04-22T04:27:24.239Z,100664.72
2023-04-22T04:29:57.227Z,100650.00
2023-04-22T04:32:25.165Z,100660.16
2023-04-22T04:34:59.168Z,100653.91
2023-04-22T04:37:26.554Z,100665.56
2023-04-22T04:40:00.173Z,100664.50
2023-04-22T04:42:26.892Z,100667.91
2023-04-22T04:45:00.285Z,100659.63
2023-04-22T04:47:43.356Z,100659.53
2023-04-22T04:50:23.204Z,100667.25
2023-04-22T04:52:50.024Z,100675.97
2023-04-22T04:55:24.144Z,100667.88
2023-04-22T04:57:50.853Z,100669.28
2023-04-22T05:00:24.187Z,100676.19
2023-04-22T05:02:58.451Z,100676.69
2023-04-22T05:05:32.218Z,100671.06
2023-04-22T05:08:05.201Z,100667.34
2023-04-22T05:10:38.335Z,100665.56
2023-04-22T05:13:11.312Z,100654.72
2023-04-22T05:15:38.302Z,100663.19
2023-04-22T05:18:13.195Z,100647.50
2023-04-22T05:20:40.268Z,100656.59
2023-04-22T05:23:13.193Z,100652.91
2023-04-22T05:25:39.919Z,100655.31
2023-04-22T05:28:13.206Z,100650.22
2023-04-22T05:30:40.012Z,100656.03
2023-04-22T05:33:15.281Z,100655.81
2023-04-22T05:35:49.293Z,100675.34
2023-04-22T05:38:16.069Z,100679.56
2023-04-22T05:40:49.162Z,100670.31
2023-04-22T05:43:23.196Z,100675.28
2023-04-22T05:45:56.324Z,100673.16
2023-04-22T05:48:23.218Z,100670.91
2023-04-22T05:50:56.316Z,100665.34
2023-04-22T05:53:23.207Z,100659.63
2023-04-22T05:55:57.202Z,100662.38
2023-04-22T05:58:24.001Z,100666.94
2023-04-22T06:00:57.191Z,100658.63
2023-04-22T06:03:24.176Z,100666.03
2023-04-22T06:05:51.311Z,100664.47
2023-04-22T06:08:24.284Z,100655.31
2023-04-22T06:11:11.272Z,100658.97
2023-04-22T06:13:38.230Z,100654.78
2023-04-22T06:16:13.223Z,100648.25
2023-04-22T06:18:46.159Z,100656.53
2023-04-22T06:21:12.950Z,100646.25
2023-04-22T06:23:46.175Z,100648.44
2023-04-22T06:26:13.318Z,100652.34
2023-04-22T06:28:47.263Z,100653.63
2023-04-22T06:31:14.160Z,100657.66
2023-04-22T06:33:47.232Z,100650.06
2023-04-22T06:36:21.227Z,100653.19
2023-04-22T06:38:54.273Z,100659.72
2023-04-22T06:41:29.273Z,100659.22
2023-04-22T06:43:56.275Z,100663.22
2023-04-22T06:46:23.142Z,100661.91
2023-04-22T06:48:56.262Z,100656.97
2023-04-22T06:51:29.218Z,100651.84
2023-04-22T06:53:58.541Z,100646.88
2023-04-22T06:56:32.272Z,100647.25
2023-04-22T06:58:59.228Z,100648.47
2023-04-22T07:01:33.352Z,100646.72
2023-04-22T07:04:07.243Z,100657.50
2023-04-22T07:06:34.102Z,100650.69
2023-04-22T07:09:07.285Z,100651.94
2023-04-22T07:11:40.686Z,100644.25
2023-04-22T07:14:14.311Z,100640.97
2023-04-22T07:16:41.196Z,100641.03
2023-04-22T07:19:14.227Z,100650.69
2023-04-22T07:21:42.311Z,100647.38
2023-04-22T07:24:19.303Z,100646.72
2023-04-22T07:26:46.101Z,100647.06
2023-04-22T07:29:22.227Z,100640.38
2023-04-22T07:31:48.996Z,100634.66
2023-04-22T07:34:22.310Z,100637.63
2023-04-22T07:36:53.888Z,100626.84
2023-04-22T07:39:27.224Z,100630.88
2023-04-22T07:41:54.127Z,100626.56
2023-04-22T07:44:28.233Z,100622.38
2023-04-22T07:46:55.842Z,100622.69
2023-04-22T07:49:29.253Z,100606.94
2023-04-22T07:52:03.296Z,100612.91
2023-04-22T07:54:36.328Z,100603.63
2023-04-22T07:57:10.330Z,100606.34
2023-04-22T07:59:37.365Z,100607.94
2023-04-22T08:02:11.530Z,100613.75
2023-04-22T08:04:38.660Z,100605.91
2023-04-22T08:07:30.921Z,100614.78
2023-04-22T08:10:06.450Z,100608.78
2023-04-22T08:12:40.473Z,100611.03
2023-04-22T08:15:14.330Z,100607.66
2023-04-22T08:17:47.349Z,100597.66
2023-04-22T08:20:15.758Z,100578.06
2023-04-22T08:22:52.305Z,100573.84
2023-04-22T08:25:19.550Z,100562.81
2023-04-22T08:27:53.364Z,100562.06
2023-04-22T08:30:26.417Z,100556.56
2023-04-22T08:33:00.431Z,100561.13
2023-04-22T08:35:34.289Z,100565.25
2023-04-22T08:38:07.362Z,100560.16
2023-04-22T08:40:42.431Z,100574.94
2023-04-22T08:43:11.280Z,100561.28
2023-04-22T08:45:46.296Z,100576.19
2023-04-22T08:48:14.074Z,100583.59
2023-04-22T08:50:51.288Z,100569.53
2023-04-22T08:53:24.990Z,100586.28
2023-04-22T08:55:52.832Z,100576.66
2023-04-22T08:58:26.370Z,100580.88
2023-04-22T09:00:53.488Z,100565.09
2023-04-22T09:03:33.431Z,100566.09
2023-04-22T09:06:11.474Z,100574.59
2023-04-22T09:08:39.333Z,100566.25
2023-04-22T09:11:19.360Z,100567.94
2023-04-22T09:13:56.829Z,100557.56
2023-04-22T09:16:30.339Z,100540.22
2023-04-22T09:19:03.293Z,100537.53
2023-04-22T09:21:33.604Z,100549.66
2023-04-22T09:24:09.366Z,100545.97
2023-04-22T09:26:41.534Z,100534.53
2023-04-22T09:29:17.324Z,100524.25
2023-04-22T09:31:53.372Z,100525.91
2023-04-22T09:34:29.394Z,100543.44
2023-04-22T09:36:56.418Z,100543.25
2023-04-22T09:39:30.313Z,100543.41
2023-04-22T09:41:57.819Z,100545.25
2023-04-22T09:44:34.346Z,100546.41
2023-04-22T09:47:01.391Z,100539.56
2023-04-22T09:49:35.352Z,100511.31
2023-04-22T09:52:08.278Z,100524.94
2023-04-22T09:54:44.280Z,100539.00
2023-04-22T09:57:22.365Z,100533.16
2023-04-22T09:59:53.146Z,100530.22
2023-04-22T10:02:36.415Z,100535.38
2023-04-22T10:05:11.381Z,100535.66
2023-04-22T10:07:46.323Z,100532.84
2023-04-22T10:10:20.454Z,100538.31
2023-04-22T10:12:55.441Z,100530.22
2023-04-22T10:15:23.186Z,100520.59
2023-04-22T10:18:00.341Z,100534.41
2023-04-22T10:20:36.363Z,100527.22
2023-04-22T10:23:05.550Z,100518.22
2023-04-22T10:25:39.379Z,100508.63
2023-04-22T10:28:08.967Z,100517.25
2023-04-22T10:30:44.446Z,100506.63
2023-04-22T10:33:38.337Z,100501.28
2023-04-22T10:36:27.442Z,100507.78
2023-04-22T10:38:54.194Z,100500.72
2023-04-22T10:41:37.414Z,100507.81
2023-04-22T10:44:08.678Z,100508.38
2023-04-22T10:46:46.360Z,100500.47
2023-04-22T10:49:18.052Z,100500.91
2023-04-22T10:51:53.356Z,100508.69
2023-04-22T10:54:35.428Z,100500.09
2023-04-22T10:57:03.232Z,100493.56
2023-04-22T10:59:38.513Z,100493.81
2023-04-22T11:02:09.757Z,100496.53
2023-04-22T11:04:44.306Z,100500.00
2023-04-22T11:07:33.412Z,100492.91
2023-04-22T11:10:07.239Z,100493.13
2023-04-22T11:12:46.468Z,100493.91
2023-04-22T11:15:26.393Z,100483.94
2023-04-22T11:18:01.488Z,100475.00
2023-04-22T11:20:35.400Z,100463.38
2023-04-22T11:23:03.486Z,100478.16
2023-04-22T11:25:37.389Z,100474.34
2023-04-22T11:28:04.319Z,100475.13
2023-04-22T11:30:38.437Z,100475.22
2023-04-22T11:33:05.467Z,100470.53
2023-04-22T11:35:41.620Z,100475.03
2023-04-22T11:38:15.401Z,100474.25
2023-04-22T11:40:46.167Z,100475.69
2023-04-22T11:43:20.494Z,100469.91
2023-04-22T11:45:47.753Z,100467.28
2023-04-22T11:48:21.483Z,100471.34
2023-04-22T11:50:48.961Z,100477.34
2023-04-22T11:53:27.399Z,100467.72
2023-04-22T11:55:54.209Z,100466.06
2023-04-22T11:58:34.433Z,100458.28
2023-04-22T12:01:01.524Z,100459.63
2023-04-22T12:03:36.608Z,100454.47
2023-04-22T12:06:06.707Z,100458.06
2023-04-22T12:08:47.449Z,100441.97
2023-04-22T12:11:20.508Z,100446.81
2023-04-22T12:14:01.458Z,100453.69
2023-04-22T12:16:28.325Z,100456.94
2023-04-22T12:19:02.402Z,100449.56
2023-04-22T12:21:38.375Z,100451.06
2023-04-22T12:24:18.519Z,100448.91
2023-04-22T12:26:51.465Z,100446.44
2023-04-22T12:29:33.464Z,100440.63
2023-04-22T12:32:07.424Z,100439.56
2023-04-22T12:34:40.599Z,100440.06
2023-04-22T12:37:07.683Z,100444.47
2023-04-22T12:39:41.844Z,100441.97
2023-04-22T12:42:09.031Z,100448.03
2023-04-22T12:44:43.455Z,100441.22
2023-04-22T12:47:16.510Z,100439.88
2023-04-22T12:49:44.950Z,100436.50
2023-04-22T12:52:20.502Z,100435.00
2023-04-22T12:54:53.536Z,100437.72
2023-04-22T12:57:26.447Z,100437.81
2023-04-22T12:59:53.297Z,100437.56
2023-04-22T13:02:26.683Z,100429.78
2023-04-22T13:04:53.760Z,100438.72
2023-04-22T13:07:27.612Z,100430.16
2023-04-22T13:09:54.713Z,100431.78
2023-04-22T13:12:34.559Z,100426.66
2023-04-22T13:15:02.578Z,100425.56
2023-04-22T13:17:36.526Z,100421.59
2023-04-22T13:20:12.463Z,100420.44
2023-04-22T13:22:47.465Z,100424.47
2023-04-22T13:25:14.334Z,100422.13
2023-04-22T13:27:47.514Z,100424.03
2023-04-22T13:30:28.585Z,100419.97
2023-04-22T13:32:55.464Z,100422.22
2023-04-22T13:35:28.459Z,100420.31
2023-04-22T13:37:55.466Z,100404.66
2023-04-22T13:40:29.587Z,100409.53
2023-04-22T13:42:56.689Z,100393.88
2023-04-22T13:45:30.571Z,100395.97
2023-04-22T13:47:57.618Z,100398.88
2023-04-22T13:50:31.449Z,100391.38
2023-04-22T13:52:58.385Z,100397.47
2023-04-22T13:55:33.510Z,100396.75
2023-04-22T13:58:01.397Z,100390.38
2023-04-22T14:00:34.558Z,100387.84
2023-04-22T14:03:01.693Z,100379.06
2023-04-22T14:05:35.492Z,100378.84
2023-04-22T14:08:08.443Z,100381.69
2023-04-22T14:10:55.452Z,100376.16
2023-04-22T14:13:30.505Z,100367.53
2023-04-22T14:15:57.867Z,100362.06
2023-04-22T14:18:32.502Z,100370.75
2023-04-22T14:21:05.456Z,100362.41
2023-04-22T14:23:39.473Z,100366.97
2023-04-22T14:26:13.089Z,100373.63
2023-04-22T14:28:48.463Z,100375.41
2023-04-22T14:31:15.428Z,100374.50
2023-04-22T14:33:48.529Z,100366.75
2023-04-22T14:36:16.158Z,100373.66
2023-04-22T14:38:49.469Z,100374.69
2023-04-22T14:41:23.537Z,100370.06
2023-04-22T14:43:50.605Z,100369.28
2023-04-22T14:46:23.684Z,100368.63
2023-04-22T14:48:57.488Z,100382.06
2023-04-22T14:51:24.319Z,100395.50
2023-04-22T14:53:58.644Z,100398.28
2023-04-22T14:56:32.567Z,100399.84
2023-04-22T14:58:59.507Z,100405.66
2023-04-22T15:01:26.363Z,100415.81
2023-04-22T15:03:59.667Z,100438.19
2023-04-22T15:06:27.802Z,100437.13
2023-04-22T15:09:01.539Z,100431.13
2023-04-22T15:11:34.741Z,100433.22
2023-04-22T15:14:16.047Z,100445.44
2023-04-22T15:16:50.615Z,100442.47
2023-04-22T15:19:17.555Z,100443.25
2023-04-22T15:21:44.451Z,100465.53
2023-04-22T15:24:17.552Z,100470.13
2023-04-22T15:26:44.413Z,100468.75
2023-04-22T15:29:18.529Z,100487.75
2023-04-22T15:31:45.820Z,100477.16
2023-04-22T15:34:19.593Z,100480.50
2023-04-22T15:36:46.665Z,100482.03
2023-04-22T15:39:19.552Z,100489.22
2023-04-22T15:41:53.564Z,100488.69
2023-04-22T15:44:28.077Z,100493.38
2023-04-22T15:46:55.265Z,100490.09
2023-04-22T15:49:28.538Z,100490.75
2023-04-22T15:52:01.553Z,100488.72
2023-04-22T15:54:34.582Z,100502.81
2023-04-22T15:57:08.581Z,100497.03
2023-04-22T15:59:35.385Z,100490.50
2023-04-22T16:02:08.812Z,100483.94
2023-04-22T16:04:36.496Z,100490.28
2023-04-22T16:07:10.642Z,100484.72
2023-04-22T16:09:37.520Z,100485.06
2023-04-22T16:12:17.514Z,100486.41
2023-04-22T16:14:44.798Z,100488.25
2023-04-22T16:17:18.572Z,100487.56
2023-04-22T16:19:45.523Z,100488.72
2023-04-22T16:22:18.557Z,100484.66
2023-04-22T16:24:45.299Z,100486.38
2023-04-22T16:27:22.605Z,100473.09
2023-04-22T16:29:55.560Z,100499.47
2023-04-22T16:32:29.597Z,100479.53
2023-04-22T16:34:56.547Z,100488.72
2023-04-22T16:37:29.694Z,100481.97
2023-04-22T16:40:03.542Z,100481.47
2023-04-22T16:42:30.332Z,100487.84
2023-04-22T16:45:03.523Z,100481.09
2023-04-22T16:47:30.237Z,100481.59
2023-04-22T16:50:03.619Z,100479.38
2023-04-22T16:52:31.282Z,100488.91
2023-04-22T16:55:04.606Z,100489.69
2023-04-22T16:57:32.122Z,100496.97
2023-04-22T17:00:05.620Z,100497.47
2023-04-22T17:02:33.397Z,100495.16
2023-04-22T17:05:04.584Z,100471.44
2023-04-22T17:07:37.621Z,100473.41
2023-04-22T17:10:04.796Z,100482.09
2023-04-22T17:12:47.004Z,100489.19
2023-04-22T17:15:14.338Z,100481.09
2023-04-22T17:17:48.673Z,100478.63
2023-04-22T17:20:15.717Z,100476.44
2023-04-22T17:22:48.626Z,100490.53
2023-04-22T17:25:21.610Z,100493.38
2023-04-22T17:27:48.478Z,100488.28
2023-04-22T17:30:21.629Z,100496.63
2023-04-22T17:32:54.574Z,100492.25
2023-04-22T17:35:21.368Z,100488.91
2023-04-22T17:37:54.634Z,100485.69
2023-04-22T17:40:22.331Z,100485.97
2023-04-22T17:42:49.137Z,100485.28
2023-04-22T17:45:22.651Z,100489.28
2023-04-22T17:47:49.677Z,100486.06
2023-04-22T17:50:22.603Z,100484.34
2023-04-22T17:52:49.481Z,100490.72
2023-04-22T17:55:22.696Z,100490.03
2023-04-22T17:57:49.416Z,100474.69
2023-04-22T18:00:23.693Z,100480.91
2023-04-22T18:02:57.783Z,100485.41
2023-04-22T18:05:25.560Z,100479.38
2023-04-22T18:07:59.574Z,100482.03
2023-04-22T18:10:26.572Z,100491.06
2023-04-22T18:12:59.610Z,100483.19
2023-04-22T18:15:26.513Z,100486.03
2023-04-22T18:17:59.765Z,100486.03
2023-04-22T18:20:26.683Z,100483.47
2023-04-22T18:23:00.605Z,100481.81
2023-04-22T18:25:27.727Z,100486.47
2023-04-22T18:28:01.723Z,100490.84
2023-04-22T18:30:28.997Z,100485.75
2023-04-22T18:32:57.682Z,100491.97
2023-04-22T18:35:31.616Z,100491.97
2023-04-22T18:37:58.369Z,100485.75
2023-04-22T18:40:25.156Z,100492.28
2023-04-22T18:42:58.706Z,100484.25
2023-04-22T18:45:31.616Z,100486.06
2023-04-22T18:47:59.189Z,100483.69
2023-04-22T18:50:32.638Z,100482.38
2023-04-22T18:52:59.442Z,100488.59
2023-04-22T18:55:32.695Z,100492.13
2023-04-22T18:57:59.656Z,100492.97
2023-04-22T19:00:33.652Z,100489.44
2023-04-22T19:03:00.616Z,100500.00
2023-04-22T19:05:33.610Z,100506.38
2023-04-22T19:08:06.668Z,100525.09
2023-04-22T19:10:40.848Z,100545.66
2023-04-22T19:13:28.560Z,100547.94
2023-04-22T19:16:03.716Z,100566.03
2023-04-22T19:18:30.922Z,100557.06
2023-04-22T19:21:04.682Z,100561.47
2023-04-22T19:23:31.786Z,100560.78
2023-04-22T19:26:04.666Z,100560.22
2023-04-22T19:28:37.672Z,100568.81
2023-04-22T19:31:06.261Z,100577.25
2023-04-22T19:33:39.610Z,100578.50
2023-04-22T19:36:06.443Z,100579.72
2023-04-22T19:38:39.645Z,100589.66
2023-04-22T19:41:08.708Z,100585.97
2023-04-22T19:43:43.695Z,100584.13
2023-04-22T19:46:23.671Z,100584.66
2023-04-22T19:48:51.474Z,100586.31
2023-04-22T19:51:25.727Z,100590.22
2023-04-22T19:53:53.761Z,100586.13
2023-04-22T19:56:27.668Z,100584.72
2023-04-22T19:58:55.055Z,100594.41
2023-04-22T20:01:30.583Z,100592.81
2023-04-22T20:03:57.836Z,100600.00
2023-04-22T20:06:32.694Z,100602.81
2023-04-22T20:09:00.029Z,100602.25
2023-04-22T20:11:46.660Z,100607.81
2023-04-22T20:14:20.710Z,100609.91
2023-04-22T20:16:48.045Z,100629.94
2023-04-22T20:19:21.698Z,100623.00
2023-04-22T20:21:49.192Z,100621.97
2023-04-22T20:24:26.692Z,100629.38
2023-04-22T20:26:54.117Z,100625.41
2023-04-22T20:29:28.678Z,100628.94
2023-04-22T20:31:55.978Z,100626.41
2023-04-22T20:34:29.742Z,100632.81
2023-04-22T20:37:02.722Z,100630.16
2023-04-22T20:39:36.638Z,100631.97
2023-04-22T20:42:03.980Z,100632.50
2023-04-22T20:44:37.703Z,100626.19
2023-04-22T20:47:04.566Z,100639.19
2023-04-22T20:49:37.751Z,100637.28
2023-04-22T20:52:10.704Z,100631.75
2023-04-22T20:54:37.794Z,100644.59
2023-04-22T20:57:12.751Z,100647.78
2023-04-22T20:59:39.475Z,100649.00
2023-04-22T21:02:13.756Z,100647.41
2023-04-22T21:04:41.327Z,100651.19
2023-04-22T21:07:18.713Z,100652.50
2023-04-22T21:09:45.726Z,100657.25
2023-04-22T21:12:25.791Z,100662.81
2023-04-22T21:14:59.832Z,100662.22
2023-04-22T21:17:37.734Z,100657.25
2023-04-22T21:20:05.864Z,100652.19
2023-04-22T21:22:39.711Z,100645.53
2023-04-22T21:25:13.817Z,100654.38
2023-04-22T21:27:47.699Z,100652.66
2023-04-22T21:30:21.976Z,100651.72
2023-04-22T21:32:48.766Z,100651.84
2023-04-22T21:35:23.844Z,100660.66
2023-04-22T21:37:52.391Z,100664.31
2023-04-22T21:40:25.750Z,100662.59
2023-04-22T21:42:52.559Z,100658.38
2023-04-22T21:45:25.897Z,100661.16
2023-04-22T21:47:52.813Z,100668.56
2023-04-22T21:50:26.754Z,100667.34
2023-04-22T21:52:53.602Z,100669.75
2023-04-22T21:55:26.701Z,100671.81
2023-04-22T21:57:53.415Z,100682.72
2023-04-22T22:00:26.893Z,100680.53
2023-04-22T22:02:54.125Z,100681.84
2023-04-22T22:05:21.102Z,100675.44
2023-04-22T22:07:55.750Z,100689.00
2023-04-22T22:10:22.988Z,100691.38
2023-04-22T22:13:02.808Z,100693.56
2023-04-22T22:15:29.551Z,100688.81
2023-04-22T22:18:02.821Z,100693.66
2023-04-22T22:20:29.962Z,100695.69
2023-04-22T22:23:02.782Z,100694.34
2023-04-22T22:25:29.484Z,100706.22
2023-04-22T22:28:02.788Z,100709.31
2023-04-22T22:30:30.270Z,100715.81
2023-04-22T22:33:03.801Z,100706.63
2023-04-22T22:35:30.618Z,100709.41
2023-04-22T22:38:03.714Z,100710.50
2023-04-22T22:40:36.745Z,100709.97
2023-04-22T22:43:03.552Z,100708.41
2023-04-22T22:45:36.711Z,100706.94
2023-04-22T22:48:03.583Z,100709.81
2023-04-22T22:50:36.749Z,100719.72
2023-04-22T22:53:03.521Z,100710.16
2023-04-22T22:55:36.755Z,100709.41
2023-04-22T22:58:09.824Z,100714.03
2023-04-22T23:00:43.747Z,100707.22
2023-04-22T23:03:19.467Z,100709.88
2023-04-22T23:05:46.813Z,100708.53
2023-04-22T23:08:19.751Z,100716.59
2023-04-22T23:10:46.549Z,100714.69
2023-04-22T23:13:27.833Z,100714.69
2023-04-22T23:15:54.541Z,100712.97
2023-04-22T23:18:27.734Z,100709.38
2023-04-22T23:20:54.913Z,100702.47
2023-04-22T23:23:29.775Z,100705.25
2023-04-22T23:25:57.392Z,100702.72
2023-04-22T23:28:24.375Z,100690.59
2023-04-22T23:30:58.763Z,100693.88
2023-04-22T23:33:26.656Z,100692.19
2023-04-22T23:35:59.753Z,100709.69
2023-04-22T23:38:27.676Z,100704.75
2023-04-22T23:41:00.807Z,100708.34
2023-04-22T23:43:33.784Z,100714.50
2023-04-22T23:46:06.807Z,100716.31
2023-04-22T23:48:33.623Z,100704.00
2023-04-22T23:51:06.838Z,100718.03
2023-04-22T23:53:33.529Z,100707.50
2023-04-22T23:56:07.748Z,100703.03
2023-04-22T23:58:34.665Z,100691.13
